createdAt,value
2018-04-23T00:00:55.513Z,1004.96
2018-04-23T00:01:55.499Z,1004.98
2018-04-23T00:02:55.481Z,1005.00
2018-04-23T00:03:55.472Z,1005.06
2018-04-23T00:04:55.454Z,1005.08
2018-04-23T00:05:55.441Z,1005.04
2018-04-23T00:06:55.424Z,1005.04
2018-04-23T00:07:55.409Z,1004.95
2018-04-23T00:08:55.394Z,1004.78
2018-04-23T00:09:55.382Z,1004.65
2018-04-23T00:10:55.369Z,1004.69
2018-04-23T00:11:55.353Z,1004.75
2018-04-23T00:12:55.339Z,1004.77
2018-04-23T00:13:55.333Z,1004.74
2018-04-23T00:14:55.315Z,1004.72
2018-04-23T00:15:55.303Z,1004.70
2018-04-23T00:16:55.282Z,1004.67
2018-04-23T00:17:55.267Z,1004.71
2018-04-23T00:18:55.252Z,1004.73
2018-04-23T00:19:55.239Z,1004.73
2018-04-23T00:20:55.230Z,1004.76
2018-04-23T00:21:55.215Z,1004.82
2018-04-23T00:22:55.197Z,1004.87
2018-04-23T00:23:55.182Z,1005.01
2018-04-23T00:24:55.171Z,1005.11
2018-04-23T00:25:55.153Z,1005.18
2018-04-23T00:26:55.137Z,1005.24
2018-04-23T00:27:55.126Z,1005.28
2018-04-23T00:28:55.117Z,1005.29
2018-04-23T00:29:55.111Z,1005.28
2018-04-23T00:30:55.078Z,1005.28
2018-04-23T00:31:55.068Z,1005.40
2018-04-23T00:32:55.053Z,1005.45
2018-04-23T00:33:55.040Z,1005.53
2018-04-23T00:34:55.027Z,1005.61
2018-04-23T00:35:55.009Z,1005.60
2018-04-23T00:36:54.996Z,1005.61
2018-04-23T00:37:54.982Z,1005.53
2018-04-23T00:38:54.973Z,1005.65
2018-04-23T00:39:54.952Z,1005.58
2018-04-23T00:40:54.938Z,1005.49
2018-04-23T00:41:54.924Z,1005.50
2018-04-23T00:42:54.907Z,1005.48
2018-04-23T00:43:54.891Z,1005.55
2018-04-23T00:44:54.877Z,1005.51
2018-04-23T00:45:54.868Z,1005.48
2018-04-23T00:46:54.856Z,1005.52
2018-04-23T00:47:54.834Z,1005.48
2018-04-23T00:48:54.817Z,1005.44
2018-04-23T00:49:54.803Z,1005.44
2018-04-23T00:50:54.788Z,1005.30
2018-04-23T00:51:54.774Z,1005.22
2018-04-23T00:52:54.759Z,1005.22
2018-04-23T00:53:54.741Z,1005.24
2018-04-23T00:54:54.729Z,1005.20
2018-04-23T00:55:54.712Z,1005.02
2018-04-23T00:56:54.699Z,1004.94
2018-04-23T00:57:54.688Z,1004.95
2018-04-23T00:58:54.671Z,1005.08
2018-04-23T00:59:54.653Z,1005.08
2018-04-23T01:00:54.640Z,1005.10
2018-04-23T01:01:54.632Z,1005.19
2018-04-23T01:02:54.608Z,1005.13
2018-04-23T01:03:54.593Z,1005.11
2018-04-23T01:04:54.581Z,1005.12
2018-04-23T01:05:54.568Z,1005.17
2018-04-23T01:06:54.552Z,1005.22
2018-04-23T01:07:54.535Z,1005.25
2018-04-23T01:08:54.522Z,1005.27
2018-04-23T01:09:54.504Z,1005.25
2018-04-23T01:10:54.490Z,1005.25
2018-04-23T01:11:54.475Z,1005.22
2018-04-23T01:12:54.469Z,1005.23
2018-04-23T01:13:54.451Z,1005.22
2018-04-23T01:14:54.432Z,1005.22
2018-04-23T01:15:54.428Z,1005.19
2018-04-23T01:16:54.402Z,1005.20
2018-04-23T01:17:54.388Z,1005.16
2018-04-23T01:18:54.373Z,1005.14
2018-04-23T01:19:54.357Z,1005.12
2018-04-23T01:20:54.343Z,1005.12
2018-04-23T01:21:54.331Z,1005.11
2018-04-23T01:22:54.315Z,1005.14
2018-04-23T01:23:54.302Z,1005.14
2018-04-23T01:24:54.283Z,1005.14
2018-04-23T01:25:54.274Z,1005.20
2018-04-23T01:26:54.254Z,1005.22
2018-04-23T01:27:54.240Z,1005.21
2018-04-23T01:28:54.224Z,1005.23
2018-04-23T01:29:54.212Z,1005.22
2018-04-23T01:30:54.198Z,1005.26
2018-04-23T01:31:54.183Z,1005.26
2018-04-23T01:32:54.165Z,1005.27
2018-04-23T01:33:54.158Z,1005.35
2018-04-23T01:34:54.137Z,1005.35
2018-04-23T01:35:54.123Z,1005.39
2018-04-23T01:36:54.113Z,1005.42
2018-04-23T01:37:54.092Z,1005.41
2018-04-23T01:38:54.079Z,1005.43
2018-04-23T01:39:54.068Z,1005.40
2018-04-23T01:40:54.051Z,1005.42
2018-04-23T01:41:54.085Z,1005.41
2018-04-23T01:42:54.019Z,1005.46
2018-04-23T01:43:54.011Z,1005.46
2018-04-23T01:44:53.993Z,1005.46
2018-04-23T01:45:53.985Z,1005.46
2018-04-23T01:46:53.968Z,1005.48
2018-04-23T01:47:53.948Z,1005.46
2018-04-23T01:48:53.933Z,1005.49
2018-04-23T01:49:53.921Z,1005.47
2018-04-23T01:50:53.903Z,1005.51
2018-04-23T01:51:53.896Z,1005.54
2018-04-23T01:52:53.878Z,1005.53
2018-04-23T01:53:53.862Z,1005.55
2018-04-23T01:54:53.851Z,1005.54
2018-04-23T01:55:53.833Z,1005.50
2018-04-23T01:56:53.822Z,1005.50
2018-04-23T01:57:53.804Z,1005.46
2018-04-23T01:58:53.791Z,1005.45
2018-04-23T01:59:53.775Z,1005.45
2018-04-23T02:00:53.764Z,1005.45
2018-04-23T02:01:53.744Z,1005.46
2018-04-23T02:02:53.731Z,1005.49
2018-04-23T02:03:53.721Z,1005.49
2018-04-23T02:04:53.702Z,1005.52
2018-04-23T02:05:53.688Z,1005.53
2018-04-23T02:06:53.672Z,1005.51
2018-04-23T02:07:53.657Z,1005.48
2018-04-23T02:08:53.645Z,1005.48
2018-04-23T02:09:53.632Z,1005.47
2018-04-23T02:10:53.613Z,1005.44
2018-04-23T02:11:53.599Z,1005.44
2018-04-23T02:12:53.585Z,1005.45
2018-04-23T02:13:53.576Z,1005.52
2018-04-23T02:14:53.555Z,1005.50
2018-04-23T02:15:53.542Z,1005.54
2018-04-23T02:16:53.532Z,1005.53
2018-04-23T02:17:53.518Z,1005.54
2018-04-23T02:18:53.505Z,1005.53
2018-04-23T02:19:53.481Z,1005.45
2018-04-23T02:20:53.469Z,1005.47
2018-04-23T02:21:53.466Z,1005.45
2018-04-23T02:22:53.477Z,1005.47
2018-04-23T02:23:53.426Z,1005.47
2018-04-23T02:24:53.416Z,1005.47
2018-04-23T02:25:53.401Z,1005.44
2018-04-23T02:26:53.384Z,1005.44
2018-04-23T02:27:53.373Z,1005.44
2018-04-23T02:28:53.353Z,1005.46
2018-04-23T02:29:53.337Z,1005.47
2018-04-23T02:30:53.335Z,1005.51
2018-04-23T02:31:53.316Z,1005.42
2018-04-23T02:32:53.295Z,1005.41
2018-04-23T02:33:53.279Z,1005.49
2018-04-23T02:34:53.265Z,1005.55
2018-04-23T02:35:53.254Z,1005.56
2018-04-23T02:36:53.241Z,1005.58
2018-04-23T02:37:53.224Z,1005.56
2018-04-23T02:38:53.219Z,1005.51
2018-04-23T02:39:53.190Z,1005.49
2018-04-23T02:40:53.177Z,1005.44
2018-04-23T02:41:53.163Z,1005.50
2018-04-23T02:42:53.153Z,1005.54
2018-04-23T02:43:53.139Z,1005.57
2018-04-23T02:44:53.124Z,1005.55
2018-04-23T02:45:53.106Z,1005.58
2018-04-23T02:46:53.092Z,1005.56
2018-04-23T02:47:53.076Z,1005.51
2018-04-23T02:48:53.062Z,1005.55
2018-04-23T02:49:53.050Z,1005.55
2018-04-23T02:50:53.030Z,1005.54
2018-04-23T02:51:53.027Z,1005.50
2018-04-23T02:52:53.003Z,1005.51
2018-04-23T02:53:52.987Z,1005.53
2018-04-23T02:54:52.990Z,1005.56
2018-04-23T02:55:52.961Z,1005.57
2018-04-23T02:56:52.951Z,1005.55
2018-04-23T02:57:52.936Z,1005.50
2018-04-23T02:58:52.918Z,1005.46
2018-04-23T02:59:52.902Z,1005.45
2018-04-23T03:00:52.890Z,1005.47
2018-04-23T03:01:52.873Z,1005.50
2018-04-23T03:02:52.857Z,1005.47
2018-04-23T03:03:52.840Z,1005.49
2018-04-23T03:04:52.828Z,1005.50
2018-04-23T03:05:52.813Z,1005.53
2018-04-23T03:06:52.802Z,1005.48
2018-04-23T03:07:52.783Z,1005.46
2018-04-23T03:08:52.770Z,1005.48
2018-04-23T03:09:52.753Z,1005.52
2018-04-23T03:10:52.737Z,1005.55
2018-04-23T03:11:52.724Z,1005.59
2018-04-23T03:12:52.715Z,1005.59
2018-04-23T03:13:52.695Z,1005.54
2018-04-23T03:14:52.678Z,1005.57
2018-04-23T03:15:52.663Z,1005.62
2018-04-23T03:16:52.651Z,1005.64
2018-04-23T03:17:52.633Z,1005.65
2018-04-23T03:18:52.622Z,1005.67
2018-04-23T03:19:52.607Z,1005.61
2018-04-23T03:20:52.592Z,1005.62
2018-04-23T03:21:52.579Z,1005.64
2018-04-23T03:22:52.562Z,1005.64
2018-04-23T03:23:52.541Z,1005.64
2018-04-23T03:24:52.533Z,1005.59
2018-04-23T03:25:52.519Z,1005.60
2018-04-23T03:26:53.006Z,1005.65
2018-04-23T03:27:52.487Z,1005.68
2018-04-23T03:28:52.470Z,1005.74
2018-04-23T03:29:52.461Z,1005.76
2018-04-23T03:30:52.439Z,1005.75
2018-04-23T03:31:52.433Z,1005.76
2018-04-23T03:32:52.413Z,1005.72
2018-04-23T03:33:52.401Z,1005.80
2018-04-23T03:34:52.381Z,1005.76
2018-04-23T03:35:52.367Z,1005.76
2018-04-23T03:36:52.353Z,1005.78
2018-04-23T03:37:52.336Z,1005.76
2018-04-23T03:38:52.322Z,1005.73
2018-04-23T03:39:52.304Z,1005.74
2018-04-23T03:40:52.295Z,1005.74
2018-04-23T03:41:52.284Z,1005.73
2018-04-23T03:42:52.263Z,1005.71
2018-04-23T03:43:52.253Z,1005.71
2018-04-23T03:44:52.234Z,1005.72
2018-04-23T03:45:52.218Z,1005.71
2018-04-23T03:46:52.203Z,1005.78
2018-04-23T03:47:52.218Z,1005.84
2018-04-23T03:48:52.172Z,1005.83
2018-04-23T03:49:52.159Z,1005.86
2018-04-23T03:50:52.140Z,1005.84
2018-04-23T03:51:52.124Z,1005.88
2018-04-23T03:52:52.113Z,1005.90
2018-04-23T03:53:52.101Z,1005.91
2018-04-23T03:54:52.081Z,1005.92
2018-04-23T03:55:52.068Z,1005.95
2018-04-23T03:56:52.052Z,1005.94
2018-04-23T03:57:52.038Z,1005.98
2018-04-23T03:58:52.032Z,1006.00
2018-04-23T03:59:52.007Z,1006.03
2018-04-23T04:00:51.991Z,1006.07
2018-04-23T04:01:51.976Z,1006.04
2018-04-23T04:02:51.959Z,1006.05
2018-04-23T04:03:51.948Z,1006.08
2018-04-23T04:04:51.933Z,1006.09
2018-04-23T04:05:51.920Z,1006.08
2018-04-23T04:06:51.903Z,1006.08
2018-04-23T04:07:51.883Z,1006.09
2018-04-23T04:08:51.874Z,1006.10
2018-04-23T04:09:51.863Z,1006.14
2018-04-23T04:10:51.850Z,1006.17
2018-04-23T04:11:51.829Z,1006.14
2018-04-23T04:12:51.810Z,1006.21
2018-04-23T04:13:51.798Z,1006.22
2018-04-23T04:14:51.783Z,1006.20
2018-04-23T04:15:51.766Z,1006.23
2018-04-23T04:16:51.801Z,1006.31
2018-04-23T04:17:51.736Z,1006.25
2018-04-23T04:18:51.723Z,1006.28
2018-04-23T04:19:51.708Z,1006.31
2018-04-23T04:20:51.692Z,1006.27
2018-04-23T04:21:51.674Z,1006.31
2018-04-23T04:22:51.659Z,1006.34
2018-04-23T04:23:51.643Z,1006.33
2018-04-23T04:24:51.628Z,1006.31
2018-04-23T04:25:51.613Z,1006.31
2018-04-23T04:26:51.600Z,1006.28
2018-04-23T04:27:51.583Z,1006.29
2018-04-23T04:28:51.567Z,1006.29
2018-04-23T04:29:51.558Z,1006.33
2018-04-23T04:30:51.543Z,1006.32
2018-04-23T04:31:51.520Z,1006.35
2018-04-23T04:32:51.512Z,1006.37
2018-04-23T04:33:51.494Z,1006.42
2018-04-23T04:34:51.480Z,1006.36
2018-04-23T04:35:51.463Z,1006.39
2018-04-23T04:36:51.446Z,1006.39
2018-04-23T04:37:51.434Z,1006.42
2018-04-23T04:38:51.423Z,1006.42
2018-04-23T04:39:51.400Z,1006.45
2018-04-23T04:40:51.384Z,1006.51
2018-04-23T04:41:51.377Z,1006.46
2018-04-23T04:42:51.354Z,1006.46
2018-04-23T04:43:51.378Z,1006.48
2018-04-23T04:44:51.323Z,1006.45
2018-04-23T04:45:51.314Z,1006.49
2018-04-23T04:46:51.293Z,1006.51
2018-04-23T04:47:51.283Z,1006.49
2018-04-23T04:48:51.264Z,1006.48
2018-04-23T04:49:51.253Z,1006.50
2018-04-23T04:50:51.233Z,1006.53
2018-04-23T04:51:51.229Z,1006.47
2018-04-23T04:52:51.204Z,1006.55
2018-04-23T04:53:51.192Z,1006.58
2018-04-23T04:54:51.174Z,1006.57
2018-04-23T04:55:51.158Z,1006.56
2018-04-23T04:56:51.142Z,1006.57
2018-04-23T04:57:51.125Z,1006.56
2018-04-23T04:58:51.110Z,1006.54
2018-04-23T04:59:51.098Z,1006.58
2018-04-23T05:00:51.086Z,1006.56
2018-04-23T05:01:51.071Z,1006.54
2018-04-23T05:02:51.056Z,1006.53
2018-04-23T05:03:51.033Z,1006.57
2018-04-23T05:04:51.024Z,1006.52
2018-04-23T05:05:51.012Z,1006.52
2018-04-23T05:06:50.989Z,1006.54
2018-04-23T05:07:50.983Z,1006.58
2018-04-23T05:08:50.964Z,1006.57
2018-04-23T05:09:50.948Z,1006.62
2018-04-23T05:10:50.928Z,1006.59
2018-04-23T05:11:50.927Z,1006.63
2018-04-23T05:12:50.897Z,1006.63
2018-04-23T05:13:50.885Z,1006.64
2018-04-23T05:14:50.872Z,1006.61
2018-04-23T05:15:50.859Z,1006.66
2018-04-23T05:16:50.842Z,1006.64
2018-04-23T05:17:50.828Z,1006.66
2018-04-23T05:18:50.812Z,1006.63
2018-04-23T05:19:50.794Z,1006.65
2018-04-23T05:20:50.784Z,1006.69
2018-04-23T05:21:50.766Z,1006.68
2018-04-23T05:22:50.752Z,1006.74
2018-04-23T05:23:50.808Z,1006.73
2018-04-23T05:24:50.718Z,1006.75
2018-04-23T05:25:50.704Z,1006.77
2018-04-23T05:26:50.686Z,1006.81
2018-04-23T05:27:50.673Z,1006.82
2018-04-23T05:28:50.662Z,1006.84
2018-04-23T05:29:50.645Z,1006.83
2018-04-23T05:30:50.631Z,1006.82
2018-04-23T05:31:50.614Z,1006.80
2018-04-23T05:32:50.599Z,1006.79
2018-04-23T05:33:50.583Z,1006.81
2018-04-23T05:34:50.569Z,1006.86
2018-04-23T05:35:50.551Z,1006.88
2018-04-23T05:36:50.537Z,1006.89
2018-04-23T05:37:50.534Z,1006.92
2018-04-23T05:38:50.505Z,1006.92
2018-04-23T05:39:50.493Z,1006.92
2018-04-23T05:40:50.482Z,1006.91
2018-04-23T05:41:50.463Z,1006.92
2018-04-23T05:42:50.446Z,1006.94
2018-04-23T05:43:50.434Z,1006.93
2018-04-23T05:44:50.418Z,1006.96
2018-04-23T05:45:50.402Z,1006.98
2018-04-23T05:46:50.388Z,1006.94
2018-04-23T05:47:50.371Z,1006.97
2018-04-23T05:48:50.355Z,1006.95
2018-04-23T05:49:50.340Z,1006.94
2018-04-23T05:50:50.322Z,1006.98
2018-04-23T05:51:50.315Z,1006.95
2018-04-23T05:52:50.292Z,1006.98
2018-04-23T05:53:50.283Z,1006.96
2018-04-23T05:54:50.263Z,1006.91
2018-04-23T05:55:50.247Z,1006.95
2018-04-23T05:56:50.233Z,1006.94
2018-04-23T05:57:50.221Z,1007.00
2018-04-23T05:58:50.205Z,1006.96
2018-04-23T05:59:50.185Z,1007.00
2018-04-23T06:00:50.176Z,1006.98
2018-04-23T06:01:50.162Z,1007.01
2018-04-23T06:02:50.153Z,1007.01
2018-04-23T06:03:50.124Z,1007.04
2018-04-23T06:04:50.111Z,1007.06
2018-04-23T06:05:50.104Z,1007.06
2018-04-23T06:06:50.079Z,1007.09
2018-04-23T06:07:50.066Z,1007.10
2018-04-23T06:08:50.048Z,1007.10
2018-04-23T06:09:50.032Z,1007.11
2018-04-23T06:10:50.016Z,1007.14
2018-04-23T06:11:50.001Z,1007.15
2018-04-23T06:12:49.992Z,1007.19
2018-04-23T06:13:49.982Z,1007.23
2018-04-23T06:14:49.962Z,1007.22
2018-04-23T06:15:49.942Z,1007.24
2018-04-23T06:16:49.927Z,1007.24
2018-04-23T06:17:49.912Z,1007.23
2018-04-23T06:18:49.898Z,1007.23
2018-04-23T06:19:49.882Z,1007.26
2018-04-23T06:20:49.865Z,1007.28
2018-04-23T06:21:49.851Z,1007.31
2018-04-23T06:22:49.832Z,1007.35
2018-04-23T06:23:49.817Z,1007.26
2018-04-23T06:24:49.801Z,1007.25
2018-04-23T06:25:49.789Z,1007.23
2018-04-23T06:26:49.770Z,1007.29
2018-04-23T06:27:49.756Z,1007.32
2018-04-23T06:28:49.738Z,1007.36
2018-04-23T06:29:49.724Z,1007.32
2018-04-23T06:30:49.708Z,1007.33
2018-04-23T06:31:49.700Z,1007.32
2018-04-23T06:32:49.677Z,1007.33
2018-04-23T06:33:49.663Z,1007.29
2018-04-23T06:34:49.648Z,1007.31
2018-04-23T06:35:49.630Z,1007.33
2018-04-23T06:36:49.623Z,1007.32
2018-04-23T06:37:49.599Z,1007.29
2018-04-23T06:38:49.585Z,1007.31
2018-04-23T06:39:49.574Z,1007.37
2018-04-23T06:40:49.559Z,1007.41
2018-04-23T06:41:49.537Z,1007.41
2018-04-23T06:42:49.520Z,1007.42
2018-04-23T06:43:49.510Z,1007.42
2018-04-23T06:44:49.489Z,1007.42
2018-04-23T06:45:49.483Z,1007.40
2018-04-23T06:46:49.456Z,1007.43
2018-04-23T06:47:49.452Z,1007.44
2018-04-23T06:48:49.434Z,1007.42
2018-04-23T06:49:49.421Z,1007.44
2018-04-23T06:50:49.400Z,1007.47
2018-04-23T06:51:49.391Z,1007.50
2018-04-23T06:52:49.367Z,1007.52
2018-04-23T06:53:49.362Z,1007.51
2018-04-23T06:54:49.332Z,1007.49
2018-04-23T06:55:49.326Z,1007.51
2018-04-23T06:56:49.307Z,1007.51
2018-04-23T06:57:49.291Z,1007.56
2018-04-23T06:58:49.279Z,1007.58
2018-04-23T06:59:49.257Z,1007.60
2018-04-23T07:00:49.243Z,1007.57
2018-04-23T07:01:49.252Z,1007.55
2018-04-23T07:02:49.222Z,1007.57
2018-04-23T07:03:49.197Z,1007.68
2018-04-23T07:04:49.230Z,1007.60
2018-04-23T07:05:49.166Z,1007.59
2018-04-23T07:06:49.151Z,1007.58
2018-04-23T07:07:49.136Z,1007.60
2018-04-23T07:08:49.120Z,1007.64
2018-04-23T07:09:49.101Z,1007.59
2018-04-23T07:10:49.089Z,1007.62
2018-04-23T07:11:49.073Z,1007.56
2018-04-23T07:12:49.057Z,1007.60
2018-04-23T07:13:49.041Z,1007.56
2018-04-23T07:14:49.030Z,1007.59
2018-04-23T07:15:49.008Z,1007.63
2018-04-23T07:16:48.992Z,1007.66
2018-04-23T07:17:48.986Z,1007.67
2018-04-23T07:18:48.962Z,1007.69
2018-04-23T07:19:48.946Z,1007.70
2018-04-23T07:20:48.930Z,1007.73
2018-04-23T07:21:48.921Z,1007.72
2018-04-23T07:22:48.898Z,1007.70
2018-04-23T07:23:48.891Z,1007.66
2018-04-23T07:24:48.868Z,1007.72
2018-04-23T07:25:48.856Z,1007.70
2018-04-23T07:26:48.841Z,1007.71
2018-04-23T07:27:48.822Z,1007.70
2018-04-23T07:28:48.816Z,1007.69
2018-04-23T07:29:48.804Z,1007.68
2018-04-23T07:30:48.781Z,1007.70
2018-04-23T07:31:48.763Z,1007.71
2018-04-23T07:32:48.745Z,1007.78
2018-04-23T07:33:48.731Z,1007.83
2018-04-23T07:34:48.739Z,1007.75
2018-04-23T07:35:48.704Z,1007.73
2018-04-23T07:36:48.683Z,1007.84
2018-04-23T07:37:48.672Z,1007.85
2018-04-23T07:38:48.652Z,1007.80
2018-04-23T07:39:48.640Z,1007.87
2018-04-23T07:40:48.631Z,1007.87
2018-04-23T07:41:48.610Z,1007.87
2018-04-23T07:42:48.594Z,1007.83
2018-04-23T07:43:48.579Z,1007.80
2018-04-23T07:44:48.563Z,1007.89
2018-04-23T07:45:48.546Z,1007.89
2018-04-23T07:46:48.530Z,1007.85
2018-04-23T07:47:48.520Z,1007.86
2018-04-23T07:48:48.502Z,1007.91
2018-04-23T07:49:48.481Z,1007.98
2018-04-23T07:50:48.467Z,1008.02
2018-04-23T07:51:48.455Z,1007.99
2018-04-23T07:52:48.436Z,1007.97
2018-04-23T07:53:48.421Z,1008.05
2018-04-23T07:54:48.404Z,1008.05
2018-04-23T07:55:48.389Z,1007.99
2018-04-23T07:56:48.374Z,1008.09
2018-04-23T07:57:48.366Z,1008.07
2018-04-23T07:58:48.343Z,1008.10
2018-04-23T07:59:48.331Z,1008.06
2018-04-23T08:00:48.313Z,1008.07
2018-04-23T08:01:48.300Z,1008.16
2018-04-23T08:02:48.280Z,1008.17
2018-04-23T08:03:48.273Z,1008.19
2018-04-23T08:04:48.254Z,1008.19
2018-04-23T08:05:48.240Z,1008.19
2018-04-23T08:06:48.233Z,1008.23
2018-04-23T08:07:48.207Z,1008.24
2018-04-23T08:08:48.189Z,1008.22
2018-04-23T08:09:48.179Z,1008.25
2018-04-23T08:10:48.160Z,1008.26
2018-04-23T08:11:48.145Z,1008.27
2018-04-23T08:12:48.134Z,1008.24
2018-04-23T08:13:48.111Z,1008.35
2018-04-23T08:14:48.097Z,1008.38
2018-04-23T08:15:48.089Z,1008.43
2018-04-23T08:16:48.066Z,1008.41
2018-04-23T08:17:48.052Z,1008.42
2018-04-23T08:18:48.044Z,1008.49
2018-04-23T08:19:48.118Z,1008.43
2018-04-23T08:20:48.010Z,1008.43
2018-04-23T08:21:47.991Z,1008.41
2018-04-23T08:22:47.977Z,1008.44
2018-04-23T08:23:47.966Z,1008.53
2018-04-23T08:24:47.952Z,1008.48
2018-04-23T08:25:47.930Z,1008.53
2018-04-23T08:26:47.920Z,1008.47
2018-04-23T08:27:47.908Z,1008.54
2018-04-23T08:28:47.887Z,1008.51
2018-04-23T08:29:47.869Z,1008.47
2018-04-23T08:30:47.853Z,1008.55
2018-04-23T08:31:47.850Z,1008.60
2018-04-23T08:32:47.841Z,1008.62
2018-04-23T08:33:47.812Z,1008.55
2018-04-23T08:34:47.797Z,1008.60
2018-04-23T08:35:47.782Z,1008.60
2018-04-23T08:36:47.760Z,1008.69
2018-04-23T08:37:47.747Z,1008.56
2018-04-23T08:38:47.732Z,1008.63
2018-04-23T08:39:47.723Z,1008.73
2018-04-23T08:40:47.702Z,1008.75
2018-04-23T08:41:47.689Z,1008.80
2018-04-23T08:42:47.680Z,1008.79
2018-04-23T08:43:47.680Z,1008.79
2018-04-23T08:44:47.649Z,1008.84
2018-04-23T08:45:47.633Z,1008.85
2018-04-23T08:46:47.627Z,1008.84
2018-04-23T08:47:47.610Z,1008.76
2018-04-23T08:48:47.582Z,1008.70
2018-04-23T08:49:47.571Z,1008.71
2018-04-23T08:50:47.554Z,1008.72
2018-04-23T08:51:47.545Z,1008.82
2018-04-23T08:52:47.523Z,1008.74
2018-04-23T08:53:47.523Z,1008.79
2018-04-23T08:54:47.493Z,1008.75
2018-04-23T08:55:47.502Z,1008.86
2018-04-23T08:56:47.463Z,1008.92
2018-04-23T08:57:47.453Z,1008.83
2018-04-23T08:58:47.435Z,1008.80
2018-04-23T08:59:47.420Z,1008.93
2018-04-23T09:00:47.410Z,1008.77
2018-04-23T09:01:47.390Z,1008.76
2018-04-23T09:02:47.377Z,1008.79
2018-04-23T09:03:47.363Z,1008.82
2018-04-23T09:04:47.345Z,1008.84
2018-04-23T09:05:47.332Z,1008.85
2018-04-23T09:06:47.314Z,1008.86
2018-04-23T09:07:47.307Z,1008.84
2018-04-23T09:08:47.292Z,1008.81
2018-04-23T09:09:47.284Z,1008.79
2018-04-23T09:10:47.257Z,1008.82
2018-04-23T09:11:47.269Z,1008.80
2018-04-23T09:12:47.227Z,1008.83
2018-04-23T09:13:47.220Z,1008.88
2018-04-23T09:14:47.195Z,1008.89
2018-04-23T09:15:47.183Z,1008.86
2018-04-23T09:16:47.164Z,1008.86
2018-04-23T09:17:47.183Z,1008.91
2018-04-23T09:18:47.135Z,1008.93
2018-04-23T09:19:47.123Z,1008.93
2018-04-23T09:20:47.100Z,1009.01
2018-04-23T09:21:47.096Z,1008.99
2018-04-23T09:22:47.072Z,1008.96
2018-04-23T09:23:47.068Z,1009.00
2018-04-23T09:24:47.060Z,1009.07
2018-04-23T09:25:47.024Z,1008.97
2018-04-23T09:26:47.014Z,1008.96
2018-04-23T09:27:46.998Z,1008.99
2018-04-23T09:28:46.986Z,1008.96
2018-04-23T09:29:46.972Z,1009.14
2018-04-23T09:30:46.946Z,1008.96
2018-04-23T09:31:46.934Z,1009.15
2018-04-23T09:32:46.925Z,1009.11
2018-04-23T09:33:46.903Z,1009.14
2018-04-23T09:34:46.888Z,1009.19
2018-04-23T09:35:46.872Z,1009.22
2018-04-23T09:36:46.863Z,1009.21
2018-04-23T09:37:46.842Z,1009.18
2018-04-23T09:38:46.825Z,1009.20
2018-04-23T09:39:46.818Z,1009.20
2018-04-23T09:40:46.802Z,1009.25
2018-04-23T09:41:46.783Z,1009.24
2018-04-23T09:42:46.769Z,1009.31
2018-04-23T09:43:46.757Z,1009.26
2018-04-23T09:44:46.738Z,1009.30
2018-04-23T09:45:46.726Z,1009.32
2018-04-23T09:46:46.706Z,1009.28
2018-04-23T09:47:46.693Z,1009.29
2018-04-23T09:48:46.682Z,1009.24
2018-04-23T09:49:46.667Z,1009.24
2018-04-23T09:50:46.650Z,1009.29
2018-04-23T09:51:46.633Z,1009.35
2018-04-23T09:52:46.624Z,1009.34
2018-04-23T09:53:46.604Z,1009.35
2018-04-23T09:54:46.593Z,1009.32
2018-04-23T09:55:46.574Z,1009.30
2018-04-23T09:56:46.564Z,1009.37
2018-04-23T09:57:46.564Z,1009.29
2018-04-23T09:58:46.533Z,1009.34
2018-04-23T09:59:46.524Z,1009.27
2018-04-23T10:00:46.507Z,1009.23
2018-04-23T10:01:46.492Z,1009.37
2018-04-23T10:02:46.479Z,1009.24
2018-04-23T10:03:46.463Z,1009.37
2018-04-23T10:04:46.454Z,1009.31
2018-04-23T10:05:46.440Z,1009.39
2018-04-23T10:06:46.427Z,1009.31
2018-04-23T10:07:46.406Z,1009.29
2018-04-23T10:08:46.396Z,1009.28
2018-04-23T10:09:46.379Z,1009.26
2018-04-23T10:10:46.363Z,1009.25
2018-04-23T10:11:46.353Z,1009.35
2018-04-23T10:12:46.337Z,1009.36
2018-04-23T10:13:46.325Z,1009.50
2018-04-23T10:14:46.307Z,1009.51
2018-04-23T10:15:46.294Z,1009.49
2018-04-23T10:16:46.284Z,1009.36
2018-04-23T10:17:46.263Z,1009.37
2018-04-23T10:18:46.259Z,1009.36
2018-04-23T10:19:46.242Z,1009.30
2018-04-23T10:20:46.223Z,1009.42
2018-04-23T10:21:46.205Z,1009.45
2018-04-23T10:22:46.198Z,1009.26
2018-04-23T10:23:46.186Z,1009.33
2018-04-23T10:24:46.165Z,1009.44
2018-04-23T10:25:46.148Z,1009.24
2018-04-23T10:26:46.135Z,1009.42
2018-04-23T10:27:46.116Z,1009.28
2018-04-23T10:28:46.107Z,1009.32
2018-04-23T10:29:46.094Z,1009.28
2018-04-23T10:30:46.073Z,1009.34
2018-04-23T10:31:46.067Z,1009.55
2018-04-23T10:32:46.046Z,1009.29
2018-04-23T10:33:46.035Z,1009.33
2018-04-23T10:34:46.025Z,1009.33
2018-04-23T10:35:46.003Z,1009.39
2018-04-23T10:36:45.993Z,1009.37
2018-04-23T10:37:45.973Z,1009.39
2018-04-23T10:38:45.963Z,1009.42
2018-04-23T10:39:45.947Z,1009.46
2018-04-23T10:40:45.930Z,1009.48
2018-04-23T10:41:45.923Z,1009.63
2018-04-23T10:42:45.903Z,1009.47
2018-04-23T10:43:45.888Z,1009.47
2018-04-23T10:44:45.876Z,1009.41
2018-04-23T10:45:45.867Z,1009.40
2018-04-23T10:46:45.842Z,1009.43
2018-04-23T10:47:45.835Z,1009.58
2018-04-23T10:48:45.818Z,1009.42
2018-04-23T10:49:45.806Z,1009.45
2018-04-23T10:50:45.792Z,1009.41
2018-04-23T10:51:45.770Z,1009.40
2018-04-23T10:52:45.757Z,1009.54
2018-04-23T10:53:45.742Z,1009.42
2018-04-23T10:54:45.725Z,1009.43
2018-04-23T10:55:45.712Z,1009.37
2018-04-23T10:56:45.709Z,1009.38
2018-04-23T10:57:45.683Z,1009.40
2018-04-23T10:58:45.669Z,1009.53
2018-04-23T10:59:45.665Z,1009.62
2018-04-23T11:00:45.637Z,1009.66
2018-04-23T11:01:45.624Z,1009.57
2018-04-23T11:02:45.614Z,1009.49
2018-04-23T11:03:45.598Z,1009.56
2018-04-23T11:04:45.583Z,1009.56
2018-04-23T11:05:45.606Z,1009.42
2018-04-23T11:06:45.554Z,1009.56
2018-04-23T11:07:45.538Z,1009.54
2018-04-23T11:08:45.524Z,1009.59
2018-04-23T11:09:45.532Z,1009.62
2018-04-23T11:10:45.498Z,1009.64
2018-04-23T11:11:45.479Z,1009.65
2018-04-23T11:12:45.464Z,1009.58
2018-04-23T11:13:45.451Z,1009.50
2018-04-23T11:14:45.441Z,1009.64
2018-04-23T11:15:45.441Z,1009.59
2018-04-23T11:16:45.409Z,1009.57
2018-04-23T11:17:45.397Z,1009.59
2018-04-23T11:18:45.387Z,1009.55
2018-04-23T11:19:45.375Z,1009.63
2018-04-23T11:20:45.353Z,1009.66
2018-04-23T11:21:45.343Z,1009.62
2018-04-23T11:22:45.379Z,1009.60
2018-04-23T11:23:45.310Z,1009.57
2018-04-23T11:24:45.344Z,1009.58
2018-04-23T11:25:45.283Z,1009.59
2018-04-23T11:26:45.287Z,1009.56
2018-04-23T11:27:45.264Z,1009.57
2018-04-23T11:28:45.247Z,1009.66
2018-04-23T11:29:45.229Z,1009.64
2018-04-23T11:30:45.216Z,1009.50
2018-04-23T11:31:45.207Z,1009.47
2018-04-23T11:32:45.195Z,1009.46
2018-04-23T11:33:45.173Z,1009.52
2018-04-23T11:34:45.159Z,1009.50
2018-04-23T11:35:45.151Z,1009.52
2018-04-23T11:36:45.138Z,1009.53
2018-04-23T11:37:45.120Z,1009.52
2018-04-23T11:38:45.109Z,1009.58
2018-04-23T11:39:45.095Z,1009.52
2018-04-23T11:40:45.082Z,1009.57
2018-04-23T11:41:45.065Z,1009.56
2018-04-23T11:42:45.050Z,1009.57
2018-04-23T11:43:45.036Z,1009.53
2018-04-23T11:44:45.044Z,1009.55
2018-04-23T11:45:45.015Z,1009.51
2018-04-23T11:46:45.000Z,1009.61
2018-04-23T11:47:44.979Z,1009.63
2018-04-23T11:48:44.969Z,1009.60
2018-04-23T11:49:44.965Z,1009.64
2018-04-23T11:50:44.935Z,1009.79
2018-04-23T11:51:44.925Z,1009.84
2018-04-23T11:52:44.909Z,1009.57
2018-04-23T11:53:44.895Z,1009.60
2018-04-23T11:54:44.890Z,1009.65
2018-04-23T11:55:44.866Z,1009.70
2018-04-23T11:56:44.854Z,1009.78
2018-04-23T11:57:44.848Z,1009.58
2018-04-23T11:58:44.825Z,1009.54
2018-04-23T11:59:44.816Z,1009.57
2018-04-23T12:00:44.797Z,1009.73
2018-04-23T12:01:44.788Z,1009.78
2018-04-23T12:02:44.765Z,1009.77
2018-04-23T12:03:44.756Z,1009.78
2018-04-23T12:04:44.733Z,1009.61
2018-04-23T12:05:44.730Z,1009.69